createdAt,value
2022-12-19T00:00:38.935Z,102721.44
2022-12-19T00:03:45.574Z,102719.09
2022-12-19T00:06:48.123Z,102741.81
2022-12-19T00:09:50.863Z,102730.81
2022-12-19T00:12:53.281Z,102754.22
2022-12-19T00:15:55.938Z,102743.38
2022-12-19T00:19:00.971Z,102732.16
2022-12-19T00:22:07.069Z,102740.94
2022-12-19T00:25:12.255Z,102744.28
2022-12-19T00:28:15.354Z,102744.72
2022-12-19T00:31:22.449Z,102750.09
2022-12-19T00:34:25.001Z,102721.84
2022-12-19T00:37:27.633Z,102719.91
2022-12-19T00:40:32.242Z,102712.59
2022-12-19T00:43:35.561Z,102743.88
2022-12-19T00:46:38.936Z,102732.16
2022-12-19T00:49:41.465Z,102739.63
2022-12-19T00:52:44.978Z,102721.59
2022-12-19T00:55:47.499Z,102729.34
2022-12-19T00:58:50.540Z,102733.09
2022-12-19T01:01:53.160Z,102722.28
2022-12-19T01:04:55.750Z,102716.09
2022-12-19T01:07:58.177Z,102725.78
2022-12-19T01:11:00.823Z,102731.84
2022-12-19T01:14:03.189Z,102734.50
2022-12-19T01:17:05.805Z,102725.44
2022-12-19T01:20:09.114Z,102709.50
2022-12-19T01:23:11.914Z,102707.56
2022-12-19T01:26:14.371Z,102719.66
2022-12-19T01:29:17.046Z,102711.28
2022-12-19T01:32:20.411Z,102692.66
2022-12-19T01:35:23.730Z,102694.25
2022-12-19T01:38:26.779Z,102687.78
2022-12-19T01:41:29.302Z,102675.34
2022-12-19T01:44:31.791Z,102681.88
2022-12-19T01:47:45.221Z,102662.69
2022-12-19T01:51:01.360Z,102662.75
2022-12-19T01:54:10.020Z,102671.13
2022-12-19T01:57:15.719Z,102649.94
2022-12-19T02:00:18.957Z,102680.72
2022-12-19T02:03:33.524Z,102663.84
2022-12-19T02:06:37.637Z,102675.50
2022-12-19T02:09:40.505Z,102662.47
2022-12-19T02:12:45.666Z,102668.53
2022-12-19T02:15:49.198Z,102676.59
2022-12-19T02:19:13.770Z,102671.34
2022-12-19T02:22:25.050Z,102673.91
2022-12-19T02:25:44.178Z,102681.63
2022-12-19T02:29:15.440Z,102683.22
2022-12-19T02:32:47.065Z,102685.22
2022-12-19T02:36:03.823Z,102681.63
2022-12-19T02:39:17.550Z,102682.41
2022-12-19T02:42:27.725Z,102680.97
2022-12-19T02:45:37.145Z,102682.94
2022-12-19T02:48:41.516Z,102693.09
2022-12-19T02:51:44.495Z,102686.66
2022-12-19T02:54:53.987Z,102696.03
2022-12-19T02:58:31.607Z,102698.72
2022-12-19T03:01:47.846Z,102693.41
2022-12-19T03:05:05.376Z,102693.50
2022-12-19T03:08:33.969Z,102702.31
2022-12-19T03:11:40.890Z,102683.56
2022-12-19T03:14:44.623Z,102684.41
2022-12-19T03:17:48.752Z,102678.91
2022-12-19T03:21:04.787Z,102679.38
2022-12-19T03:24:10.069Z,102663.53
2022-12-19T03:27:24.704Z,102661.75
2022-12-19T03:30:29.682Z,102666.16
2022-12-19T03:33:34.899Z,102644.44
2022-12-19T03:36:42.825Z,102647.06
2022-12-19T03:39:49.087Z,102647.22
2022-12-19T03:43:10.402Z,102643.78
2022-12-19T03:46:26.634Z,102650.06
2022-12-19T03:49:29.539Z,102641.56
2022-12-19T03:52:51.317Z,102670.09
2022-12-19T03:56:05.117Z,102672.66
2022-12-19T03:59:13.373Z,102672.59
2022-12-19T04:02:18.291Z,102682.31
2022-12-19T04:05:24.673Z,102662.59
2022-12-19T04:08:29.074Z,102653.25
2022-12-19T04:11:38.799Z,102673.13
2022-12-19T04:14:41.961Z,102662.38
2022-12-19T04:17:51.755Z,102667.88
2022-12-19T04:21:28.011Z,102664.00
2022-12-19T04:24:34.989Z,102669.72
2022-12-19T04:27:40.741Z,102667.69
2022-12-19T04:30:45.180Z,102672.94
2022-12-19T04:33:47.665Z,102663.03
2022-12-19T04:36:51.320Z,102660.06
2022-12-19T04:39:53.937Z,102669.56
2022-12-19T04:42:56.600Z,102657.00
2022-12-19T04:45:59.138Z,102667.06
2022-12-19T04:49:01.948Z,102663.59
2022-12-19T04:52:04.728Z,102662.59
2022-12-19T04:55:07.917Z,102670.47
2022-12-19T04:58:10.393Z,102651.22
2022-12-19T05:01:14.380Z,102651.22
2022-12-19T05:04:17.198Z,102678.63
2022-12-19T05:07:19.688Z,102675.31
2022-12-19T05:10:22.206Z,102671.66
2022-12-19T05:13:24.688Z,102672.97
2022-12-19T05:16:27.238Z,102674.44
2022-12-19T05:19:30.548Z,102662.00
2022-12-19T05:22:33.455Z,102662.84
2022-12-19T05:25:35.974Z,102670.81
2022-12-19T05:28:39.010Z,102674.19
2022-12-19T05:31:41.922Z,102646.84
2022-12-19T05:34:44.435Z,102639.53
2022-12-19T05:37:46.882Z,102651.75
2022-12-19T05:40:50.048Z,102662.59
2022-12-19T05:43:55.054Z,102668.75
2022-12-19T05:46:57.719Z,102650.38
2022-12-19T05:50:00.322Z,102664.28
2022-12-19T05:53:02.764Z,102649.06
2022-12-19T05:56:17.514Z,102640.94
2022-12-19T05:59:20.221Z,102657.16
2022-12-19T06:02:23.166Z,102645.22
2022-12-19T06:05:25.826Z,102662.50
2022-12-19T06:08:28.311Z,102664.91
2022-12-19T06:11:31.075Z,102674.50
2022-12-19T06:14:33.661Z,102660.50
2022-12-19T06:17:36.076Z,102654.06
2022-12-19T06:20:39.229Z,102670.69
2022-12-19T06:23:43.660Z,102681.38
2022-12-19T06:26:46.166Z,102675.88
2022-12-19T06:29:48.718Z,102667.31
2022-12-19T06:32:51.453Z,102648.56
2022-12-19T06:36:00.009Z,102672.88
2022-12-19T06:39:02.765Z,102637.06
2022-12-19T06:42:23.765Z,102666.13
2022-12-19T06:45:26.292Z,102667.84
2022-12-19T06:48:29.356Z,102661.25
2022-12-19T06:51:33.191Z,102677.84
2022-12-19T06:54:35.678Z,102684.31
2022-12-19T06:57:45.352Z,102650.97
2022-12-19T07:00:48.638Z,102680.41
2022-12-19T07:03:51.922Z,102657.13
2022-12-19T07:06:54.761Z,102688.38
2022-12-19T07:09:57.565Z,102701.59
2022-12-19T07:13:00.522Z,102697.47
2022-12-19T07:16:05.328Z,102699.84
2022-12-19T07:19:09.346Z,102694.97
2022-12-19T07:22:14.071Z,102677.09
2022-12-19T07:25:17.853Z,102675.88
2022-12-19T07:28:20.392Z,102694.31
2022-12-19T07:31:22.859Z,102679.97
2022-12-19T07:34:26.286Z,102697.53
2022-12-19T07:37:28.835Z,102700.84
2022-12-19T07:40:33.785Z,102684.00
2022-12-19T07:43:36.338Z,102694.75
2022-12-19T07:46:39.911Z,102697.78
2022-12-19T07:49:42.429Z,102678.88
2022-12-19T07:52:45.414Z,102692.50
2022-12-19T07:55:51.700Z,102699.56
2022-12-19T07:58:54.373Z,102707.47
2022-12-19T08:01:57.153Z,102708.22
2022-12-19T08:05:03.043Z,102720.22
2022-12-19T08:08:05.672Z,102714.84
2022-12-19T08:11:22.379Z,102706.63
2022-12-19T08:14:25.068Z,102719.38
2022-12-19T08:17:27.565Z,102726.53
2022-12-19T08:20:30.429Z,102715.09
2022-12-19T08:23:33.125Z,102710.66
2022-12-19T08:26:40.469Z,102734.63
2022-12-19T08:29:45.773Z,102711.09
2022-12-19T08:32:48.396Z,102733.22
2022-12-19T08:35:51.499Z,102725.06
2022-12-19T08:38:54.290Z,102721.94
2022-12-19T08:41:56.811Z,102712.81
2022-12-19T08:44:59.284Z,102712.75
2022-12-19T08:48:01.783Z,102709.41
2022-12-19T08:51:07.460Z,102720.63
2022-12-19T08:54:11.896Z,102693.88
2022-12-19T08:57:14.710Z,102698.91
2022-12-19T09:00:18.086Z,102696.53
2022-12-19T09:03:22.722Z,102710.53
2022-12-19T09:06:27.342Z,102707.22
2022-12-19T09:09:30.267Z,102698.91
2022-12-19T09:12:32.813Z,102694.66
2022-12-19T09:15:35.277Z,102699.13
2022-12-19T09:18:45.169Z,102707.69
2022-12-19T09:21:50.605Z,102689.28
2022-12-19T09:24:53.202Z,102706.91
2022-12-19T09:28:26.254Z,102710.16
2022-12-19T09:31:21.493Z,102705.97
2022-12-19T09:34:36.809Z,102711.31
2022-12-19T09:37:40.799Z,102680.94
2022-12-19T09:41:26.724Z,102694.47
2022-12-19T09:44:47.871Z,102692.75
2022-12-19T09:47:55.475Z,102682.56
2022-12-19T09:51:13.886Z,102688.03
2022-12-19T09:54:37.057Z,102669.44
2022-12-19T09:58:13.550Z,102681.81
2022-12-19T10:01:22.410Z,102669.56
2022-12-19T10:04:29.763Z,102670.41
2022-12-19T10:07:53.326Z,102660.31
2022-12-19T10:12:43.953Z,102660.19
2022-12-19T10:15:03.120Z,102645.59
2022-12-19T10:18:34.301Z,102664.41
2022-12-19T10:25:12.225Z,102637.69
2022-12-19T10:28:38.036Z,102654.59
2022-12-19T10:32:04.522Z,102660.34
2022-12-19T10:35:18.941Z,102629.22
2022-12-19T10:38:28.659Z,102651.28
2022-12-19T10:41:32.601Z,102637.88
2022-12-19T10:44:40.125Z,102623.69
2022-12-19T10:47:42.758Z,102637.09
2022-12-19T10:50:45.554Z,102617.00
2022-12-19T10:53:55.270Z,102624.09
2022-12-19T10:57:22.998Z,102629.16
2022-12-19T11:00:26.358Z,102631.16
2022-12-19T11:03:29.029Z,102618.56
2022-12-19T11:06:37.749Z,102613.81
2022-12-19T11:09:42.614Z,102604.78
2022-12-19T11:18:14.718Z,102614.38
2022-12-19T11:21:15.059Z,102609.38
2022-12-19T11:29:25.515Z,102627.81
2022-12-19T11:30:09.514Z,102608.66
2022-12-19T11:30:43.940Z,102616.97
2022-12-19T11:33:33.227Z,102594.56
2022-12-19T11:36:55.945Z,102596.63
2022-12-19T11:40:03.596Z,102587.63
2022-12-19T11:46:51.548Z,102573.59
2022-12-19T11:50:02.982Z,102570.00
2022-12-19T11:53:19.203Z,102583.81
2022-12-19T11:56:24.780Z,102580.78
2022-12-19T11:59:38.568Z,102566.28
2022-12-19T12:02:43.964Z,102564.75
2022-12-19T12:05:48.026Z,102546.66
2022-12-19T12:12:15.344Z,102549.22
2022-12-19T12:18:41.636Z,102530.69
2022-12-19T12:31:01.056Z,102524.94
2022-12-19T12:31:22.672Z,102548.13
2022-12-19T12:31:23.268Z,102543.13
2022-12-19T12:32:03.187Z,102550.31
2022-12-19T12:37:03.453Z,102537.75
2022-12-19T12:39:02.521Z,102528.19
2022-12-19T12:42:26.998Z,102547.47
2022-12-19T12:45:41.382Z,102534.09
2022-12-19T12:48:52.093Z,102540.81
2022-12-19T12:51:55.361Z,102518.66
2022-12-19T12:54:58.551Z,102538.28
2022-12-19T12:58:01.236Z,102535.53
2022-12-19T13:01:11.698Z,102538.41
2022-12-19T13:04:15.775Z,102535.66
2022-12-19T13:07:50.993Z,102536.16
2022-12-19T13:10:56.541Z,102530.69
2022-12-19T13:13:59.330Z,102523.34
2022-12-19T13:17:21.787Z,102509.06
2022-12-19T13:20:24.868Z,102516.97
2022-12-19T13:23:30.695Z,102511.63
2022-12-19T13:26:50.123Z,102495.81
2022-12-19T13:30:03.664Z,102522.56
2022-12-19T13:33:08.836Z,102500.13
2022-12-19T13:39:54.780Z,102518.72
2022-12-19T13:40:20.996Z,102489.56
2022-12-19T13:43:49.933Z,102482.22
2022-12-19T13:46:56.433Z,102501.31
2022-12-19T13:50:04.309Z,102501.41
2022-12-19T13:53:21.947Z,102492.34
2022-12-19T13:56:24.416Z,102507.13
2022-12-19T13:59:33.800Z,102507.53
2022-12-19T14:02:45.250Z,102515.06
2022-12-19T14:06:17.453Z,102510.63
2022-12-19T14:11:26.089Z,102491.47
2022-12-19T14:13:57.326Z,102485.63
2022-12-19T14:16:43.967Z,102466.19
2022-12-19T14:19:50.158Z,102498.47
2022-12-19T14:23:00.296Z,102486.41
2022-12-19T14:28:26.135Z,102487.16
2022-12-19T14:30:29.329Z,102498.13
2022-12-19T14:33:44.255Z,102483.38
2022-12-19T14:36:31.470Z,102497.72
2022-12-19T14:39:36.332Z,102471.56
2022-12-19T14:43:59.309Z,102467.03
2022-12-19T14:51:42.914Z,102498.34
2022-12-19T14:54:13.006Z,102474.66
2022-12-19T14:54:46.758Z,102485.63
2022-12-19T14:57:01.047Z,102491.78
2022-12-19T15:01:07.552Z,102468.75
2022-12-19T15:04:52.466Z,102480.53
2022-12-19T15:07:17.752Z,102488.03
2022-12-19T15:11:03.853Z,102479.56
2022-12-19T15:14:54.203Z,102498.97
2022-12-19T15:17:23.883Z,102508.94
2022-12-19T15:20:26.571Z,102493.03
2022-12-19T15:23:29.874Z,102491.06
2022-12-19T15:26:46.095Z,102476.16
2022-12-19T15:29:49.564Z,102509.91
2022-12-19T15:32:52.134Z,102510.56
2022-12-19T15:35:55.934Z,102497.22
2022-12-19T15:38:58.376Z,102506.47
2022-12-19T15:42:01.955Z,102489.13
2022-12-19T15:45:05.035Z,102490.19
2022-12-19T15:48:18.129Z,102480.13
2022-12-19T15:51:20.530Z,102489.66
2022-12-19T15:57:51.235Z,102486.13
2022-12-19T16:01:00.444Z,102489.66
2022-12-19T16:04:03.609Z,102491.59
2022-12-19T16:07:14.823Z,102486.50
2022-12-19T16:10:17.830Z,102469.25
2022-12-19T16:13:24.379Z,102481.16
2022-12-19T16:16:27.158Z,102480.56
2022-12-19T16:19:31.263Z,102465.88
2022-12-19T16:22:33.840Z,102469.69
2022-12-19T16:25:40.993Z,102454.53
2022-12-19T16:28:43.626Z,102457.56
2022-12-19T16:31:46.494Z,102467.72
2022-12-19T16:34:48.981Z,102465.47
2022-12-19T16:37:51.501Z,102456.84
2022-12-19T16:40:54.051Z,102452.94
2022-12-19T16:43:56.543Z,102446.22
2022-12-19T16:46:59.270Z,102428.50
2022-12-19T16:50:07.627Z,102434.34
2022-12-19T16:53:10.160Z,102449.34
2022-12-19T16:56:29.880Z,102462.72
2022-12-19T16:59:41.638Z,102462.63
2022-12-19T17:02:58.724Z,102456.53
2022-12-19T17:06:01.528Z,102438.72
2022-12-19T17:09:04.044Z,102455.56
2022-12-19T17:12:06.822Z,102465.38
2022-12-19T17:15:31.584Z,102459.19
2022-12-19T17:18:37.209Z,102456.81
2022-12-19T17:21:39.608Z,102461.84
2022-12-19T17:24:43.558Z,102448.22
2022-12-19T17:27:46.822Z,102461.94
2022-12-19T17:30:52.495Z,102470.81
2022-12-19T17:33:57.800Z,102456.47
2022-12-19T17:37:03.246Z,102451.03
2022-12-19T17:40:16.720Z,102467.63
2022-12-19T17:43:19.142Z,102475.38
2022-12-19T17:46:25.397Z,102473.09
2022-12-19T17:49:31.069Z,102474.69
2022-12-19T17:52:36.241Z,102455.31
2022-12-19T17:55:38.631Z,102477.59
2022-12-19T17:58:41.154Z,102462.06
2022-12-19T18:01:47.435Z,102456.44
2022-12-19T18:04:51.223Z,102435.06
2022-12-19T18:07:54.533Z,102463.41
2022-12-19T18:11:03.927Z,102446.72
2022-12-19T18:14:06.349Z,102462.66
2022-12-19T18:17:12.706Z,102458.44
2022-12-19T18:20:19.284Z,102462.66
2022-12-19T18:23:23.652Z,102459.78
2022-12-19T18:26:26.566Z,102472.41
2022-12-19T18:29:29.091Z,102463.59
2022-12-19T18:32:34.165Z,102450.38
2022-12-19T18:35:40.676Z,102461.94
2022-12-19T18:38:43.321Z,102457.47
2022-12-19T18:41:48.210Z,102435.88
2022-12-19T18:44:50.688Z,102434.16
2022-12-19T18:47:57.530Z,102421.44
2022-12-19T18:51:02.168Z,102426.97
2022-12-19T18:54:12.817Z,102394.19
2022-12-19T18:57:15.499Z,102415.03
2022-12-19T19:00:20.549Z,102397.66
2022-12-19T19:03:29.171Z,102412.97
2022-12-19T19:06:37.609Z,102396.16
2022-12-19T19:09:41.471Z,102405.91
2022-12-19T19:13:09.849Z,102393.03
2022-12-19T19:16:19.016Z,102396.16
2022-12-19T19:19:22.957Z,102408.53
2022-12-19T19:22:25.882Z,102389.88
2022-12-19T19:25:28.598Z,102370.94
2022-12-19T19:28:31.346Z,102406.06
2022-12-19T19:31:38.670Z,102397.16
2022-12-19T19:34:41.666Z,102392.19
2022-12-19T19:37:45.265Z,102385.28
2022-12-19T19:40:49.235Z,102390.69
2022-12-19T19:43:51.821Z,102383.13
2022-12-19T19:46:54.357Z,102374.75
2022-12-19T19:49:57.244Z,102387.84
2022-12-19T19:53:00.227Z,102376.59
2022-12-19T19:56:04.002Z,102368.97
2022-12-19T19:59:06.643Z,102366.72
2022-12-19T20:02:11.169Z,102352.66
2022-12-19T20:05:13.961Z,102370.09
2022-12-19T20:08:16.680Z,102392.69
2022-12-19T20:11:20.526Z,102358.06
2022-12-19T20:14:23.770Z,102393.34
2022-12-19T20:17:26.673Z,102401.94
2022-12-19T20:20:29.440Z,102403.34
2022-12-19T20:23:32.084Z,102386.41
2022-12-19T20:26:35.324Z,102406.88
2022-12-19T20:29:37.955Z,102395.81
2022-12-19T20:32:40.571Z,102395.66
2022-12-19T20:35:43.660Z,102357.16
2022-12-19T20:38:47.195Z,102381.41
2022-12-19T20:41:51.512Z,102361.63
2022-12-19T20:44:54.247Z,102365.72
2022-12-19T20:47:57.559Z,102391.75
2022-12-19T20:51:01.561Z,102373.50
2022-12-19T20:54:05.202Z,102385.44
2022-12-19T20:57:07.786Z,102387.75
2022-12-19T21:00:11.529Z,102373.72
2022-12-19T21:03:27.785Z,102359.06
2022-12-19T21:06:31.433Z,102361.47
2022-12-19T21:09:33.952Z,102382.47
2022-12-19T21:12:38.000Z,102373.22
2022-12-19T21:15:42.547Z,102377.44
2022-12-19T21:18:47.370Z,102343.06
2022-12-19T21:21:50.188Z,102376.53
2022-12-19T21:24:52.604Z,102381.47
2022-12-19T21:27:55.027Z,102359.25
2022-12-19T21:31:06.864Z,102358.16
2022-12-19T21:34:10.118Z,102335.28
2022-12-19T21:37:12.502Z,102358.81
2022-12-19T21:40:16.083Z,102339.78
2022-12-19T21:43:18.715Z,102356.84
2022-12-19T21:46:23.965Z,102341.78
2022-12-19T21:49:26.613Z,102358.06
2022-12-19T21:52:29.090Z,102351.59
2022-12-19T21:55:31.528Z,102360.88
2022-12-19T21:58:34.462Z,102354.84
2022-12-19T22:01:37.032Z,102364.50
2022-12-19T22:04:39.522Z,102367.50
2022-12-19T22:07:41.968Z,102351.09
2022-12-19T22:10:44.506Z,102357.66
2022-12-19T22:13:48.702Z,102354.78
2022-12-19T22:16:51.593Z,102362.53
2022-12-19T22:19:55.378Z,102347.44
2022-12-19T22:22:58.018Z,102330.75
2022-12-19T22:26:07.261Z,102325.78
2022-12-19T22:29:13.814Z,102328.19
2022-12-19T22:32:17.928Z,102327.59
2022-12-19T22:35:20.518Z,102305.19
2022-12-19T22:38:23.007Z,102307.00
2022-12-19T22:41:26.106Z,102328.75
2022-12-19T22:44:28.583Z,102319.38
2022-12-19T22:47:31.049Z,102302.28
2022-12-19T22:50:33.719Z,102308.56
2022-12-19T22:53:37.745Z,102295.78
2022-12-19T22:56:40.458Z,102268.94
2022-12-19T22:59:43.072Z,102266.47
2022-12-19T23:02:45.649Z,102275.31
2022-12-19T23:05:51.843Z,102275.47
2022-12-19T23:08:54.944Z,102270.50
2022-12-19T23:11:57.394Z,102281.06
2022-12-19T23:14:59.864Z,102273.97
2022-12-19T23:18:02.566Z,102280.13
2022-12-19T23:21:07.675Z,102289.63
2022-12-19T23:24:12.329Z,102284.13
2022-12-19T23:27:14.959Z,102272.66
2022-12-19T23:30:18.566Z,102258.91
2022-12-19T23:33:21.311Z,102234.69
2022-12-19T23:37:00.427Z,102272.66
2022-12-19T23:39:47.055Z,102265.34
2022-12-19T23:42:50.010Z,102250.34
2022-12-19T23:45:52.898Z,102263.28
2022-12-19T23:48:55.803Z,102252.63
2022-12-19T23:52:00.009Z,102245.22
2022-12-19T23:55:02.434Z,102264.75
2022-12-19T23:58:09.621Z,102264.41
